createdAt,value
2023-01-19T00:00:22.550Z,20.92
2023-01-19T00:05:16.261Z,18.10
2023-01-19T00:10:12.907Z,21.02
2023-01-19T00:15:10.350Z,19.58
2023-01-19T00:20:05.502Z,17.52
2023-01-19T00:24:58.930Z,16.08
2023-01-19T00:29:53.340Z,19.77
2023-01-19T00:34:52.421Z,22.52
2023-01-19T00:39:51.231Z,21.20
2023-01-19T00:44:44.558Z,17.13
2023-01-19T00:49:40.503Z,17.75
2023-01-19T00:54:37.468Z,18.73
2023-01-19T00:59:32.419Z,22.75
2023-01-19T01:04:28.642Z,16.45
2023-01-19T01:09:22.321Z,18.10
2023-01-19T01:14:15.737Z,20.25
2023-01-19T01:19:13.042Z,19.80
2023-01-19T01:24:06.702Z,17.17
2023-01-19T01:28:59.927Z,16.88
2023-01-19T01:33:55.841Z,21.27
2023-01-19T01:38:52.277Z,18.23
2023-01-19T01:43:54.437Z,21.50
2023-01-19T01:48:53.325Z,19.73
2023-01-19T01:53:48.772Z,20.08
2023-01-19T01:59:26.334Z,18.85
2023-01-19T02:04:25.647Z,13.40
2023-01-19T02:09:36.290Z,20.63
2023-01-19T02:14:37.478Z,18.83
2023-01-19T02:19:39.180Z,27.15
2023-01-19T02:24:36.715Z,22.95
2023-01-19T02:29:33.295Z,16.92
2023-01-19T02:34:26.629Z,21.40
2023-01-19T02:39:24.249Z,23.42
2023-01-19T02:44:22.496Z,18.73
2023-01-19T02:49:18.489Z,24.73
2023-01-19T02:54:30.508Z,21.92
2023-01-19T02:59:34.537Z,22.13
2023-01-19T03:04:34.926Z,18.95
2023-01-19T03:09:38.604Z,14.43
2023-01-19T03:14:43.981Z,22.35
2023-01-19T03:19:44.525Z,22.38
2023-01-19T03:24:41.346Z,19.77
2023-01-19T03:29:40.979Z,17.67
2023-01-19T03:34:46.372Z,18.42
2023-01-19T03:39:41.065Z,22.52
2023-01-19T03:44:44.295Z,20.63
2023-01-19T03:49:43.178Z,18.92
2023-01-19T03:54:36.658Z,16.85
2023-01-19T03:59:30.132Z,29.08
2023-01-19T04:04:29.650Z,13.98
2023-01-19T04:09:23.136Z,23.13
2023-01-19T04:14:19.382Z,23.17
2023-01-19T04:19:16.294Z,21.23
2023-01-19T04:24:16.944Z,20.52
2023-01-19T04:29:16.052Z,19.55
2023-01-19T04:34:09.424Z,23.33
2023-01-19T04:39:05.220Z,29.00
2023-01-19T04:44:00.133Z,23.45
2023-01-19T04:48:53.551Z,22.20
2023-01-19T04:53:48.724Z,20.98
2023-01-19T04:58:42.055Z,23.98
2023-01-19T05:03:36.897Z,18.85
2023-01-19T05:08:31.213Z,18.85
2023-01-19T05:13:27.096Z,20.83
2023-01-19T05:18:20.472Z,21.52
2023-01-19T05:23:15.638Z,25.17
2023-01-19T05:28:09.231Z,23.20
2023-01-19T05:33:03.230Z,18.13
2023-01-19T05:37:59.647Z,22.20
2023-01-19T05:43:01.875Z,26.42
2023-01-19T05:47:58.511Z,27.35
2023-01-19T05:52:53.389Z,23.67
2023-01-19T05:57:54.507Z,23.75
2023-01-19T06:02:50.380Z,26.20
2023-01-19T06:07:43.804Z,19.85
2023-01-19T06:12:37.626Z,20.42
2023-01-19T06:17:32.865Z,27.50
2023-01-19T06:22:27.428Z,24.48
2023-01-19T06:27:20.775Z,25.38
2023-01-19T06:32:14.005Z,30.50
2023-01-19T06:37:07.194Z,25.85
2023-01-19T06:42:01.786Z,21.48
2023-01-19T06:47:14.602Z,19.90
2023-01-19T06:52:08.347Z,26.33
2023-01-19T06:57:05.726Z,25.80
2023-01-19T07:01:59.176Z,24.52
2023-01-19T07:06:52.493Z,20.90
2023-01-19T07:11:45.594Z,30.58
2023-01-19T07:16:45.817Z,23.83
2023-01-19T07:26:31.927Z,20.38
2023-01-19T07:31:25.273Z,21.13
2023-01-19T07:36:20.082Z,23.98
2023-01-19T07:41:13.345Z,28.40
2023-01-19T07:46:07.875Z,21.13
2023-01-19T07:51:01.935Z,23.63
2023-01-19T07:55:59.756Z,24.77
2023-01-19T08:00:54.058Z,35.38
2023-01-19T08:05:55.128Z,19.60
2023-01-19T08:10:51.280Z,24.67
2023-01-19T08:15:46.639Z,28.52
2023-01-19T08:20:39.845Z,26.65
2023-01-19T08:25:37.974Z,30.15
2023-01-19T08:30:31.429Z,20.60
2023-01-19T08:35:25.996Z,31.77
2023-01-19T08:40:19.887Z,23.65
2023-01-19T08:45:13.365Z,24.05
2023-01-19T08:50:07.352Z,21.23
2023-01-19T08:55:01.965Z,24.08
2023-01-19T08:59:55.155Z,21.88
2023-01-19T09:04:51.954Z,24.02
2023-01-19T09:09:45.259Z,23.40
2023-01-19T09:14:43.074Z,24.80
2023-01-19T09:19:36.417Z,17.45
2023-01-19T09:24:29.610Z,22.05
2023-01-19T09:29:22.861Z,42.58
2023-01-19T09:34:17.537Z,25.00
2023-01-19T09:39:11.374Z,22.80
2023-01-19T09:44:07.696Z,26.23
2023-01-19T09:49:05.177Z,32.30
2023-01-19T09:54:06.196Z,28.63
2023-01-19T09:59:00.666Z,30.55
2023-01-19T10:04:07.080Z,30.95
2023-01-19T10:09:12.187Z,23.20
2023-01-19T10:14:18.325Z,22.38
2023-01-19T10:19:24.223Z,26.65
2023-01-19T10:24:24.957Z,25.10
2023-01-19T10:29:26.936Z,28.73
2023-01-19T10:34:23.371Z,23.70
2023-01-19T10:39:20.071Z,25.98
2023-01-19T10:44:25.405Z,27.75
2023-01-19T10:49:30.123Z,23.90
2023-01-19T10:54:30.713Z,26.02
2023-01-19T10:59:37.493Z,22.80
2023-01-19T11:04:33.369Z,18.37
2023-01-19T11:09:30.680Z,25.92
2023-01-19T11:14:25.627Z,19.55
2023-01-19T11:19:27.914Z,18.85
2023-01-19T11:24:22.172Z,25.30
2023-01-19T11:29:23.266Z,20.23
2023-01-19T11:34:33.203Z,20.05
2023-01-19T11:39:30.447Z,18.23
2023-01-19T11:44:27.585Z,26.60
2023-01-19T11:49:28.847Z,20.73
2023-01-19T11:54:32.439Z,20.95
2023-01-19T11:59:27.359Z,30.17
2023-01-19T12:04:27.747Z,24.63
2023-01-19T12:09:28.567Z,18.27
2023-01-19T12:14:28.388Z,23.17
2023-01-19T12:19:29.102Z,19.60
2023-01-19T12:24:31.645Z,23.42
2023-01-19T12:29:30.445Z,23.38
2023-01-19T12:34:38.132Z,18.87
2023-01-19T12:39:37.326Z,16.92
2023-01-19T12:44:35.350Z,17.92
2023-01-19T12:49:34.257Z,21.38
2023-01-19T12:54:31.770Z,14.57
2023-01-19T12:59:28.118Z,16.98
2023-01-19T13:04:35.063Z,22.40
2023-01-19T13:09:32.055Z,21.60
2023-01-19T13:14:42.959Z,17.33
2023-01-19T13:20:03.867Z,16.65
2023-01-19T13:25:12.977Z,12.20
2023-01-19T13:30:17.083Z,15.95
2023-01-19T13:35:18.686Z,17.80
2023-01-19T13:40:22.843Z,17.77
2023-01-19T13:45:29.318Z,18.95
2023-01-19T13:50:30.939Z,15.95
2023-01-19T13:55:30.118Z,21.42
2023-01-19T14:00:27.703Z,31.60
2023-01-19T14:05:35.661Z,16.40
2023-01-19T14:10:31.345Z,16.05
2023-01-19T14:15:26.575Z,14.30
2023-01-19T14:20:30.765Z,15.90
2023-01-19T14:25:29.407Z,17.65
2023-01-19T14:30:26.305Z,18.98
2023-01-19T14:35:28.454Z,12.80
2023-01-19T14:40:24.635Z,11.75
2023-01-19T14:45:20.617Z,20.65
2023-01-19T14:50:26.722Z,16.85
2023-01-19T14:55:25.249Z,14.30
2023-01-19T15:00:20.316Z,10.82
2023-01-19T15:05:16.826Z,16.92
2023-01-19T15:10:20.941Z,11.20
2023-01-19T15:15:22.252Z,9.48
2023-01-19T15:20:22.472Z,11.18
2023-01-19T15:25:20.007Z,10.68
2023-01-19T15:30:19.449Z,14.52
2023-01-19T15:35:19.527Z,10.77
2023-01-19T15:40:13.935Z,10.73
2023-01-19T15:45:32.155Z,9.40
2023-01-19T15:50:27.392Z,9.00
2023-01-19T15:55:22.240Z,10.18
2023-01-19T16:00:22.636Z,11.23
2023-01-19T16:05:16.348Z,13.02
2023-01-19T16:10:24.512Z,12.25
2023-01-19T16:15:19.475Z,7.25
2023-01-19T16:20:14.863Z,10.82
2023-01-19T16:25:08.889Z,11.20
2023-01-19T16:30:05.109Z,10.20
2023-01-19T16:35:02.376Z,9.55
2023-01-19T16:39:55.798Z,9.30
2023-01-19T16:44:49.259Z,11.55
2023-01-19T16:49:42.589Z,11.23
2023-01-19T16:54:39.364Z,7.70
2023-01-19T16:59:33.668Z,14.55
2023-01-19T17:04:32.191Z,10.50
2023-01-19T17:09:25.699Z,9.52
2023-01-19T17:14:21.603Z,9.95
2023-01-19T17:19:16.801Z,8.27
2023-01-19T17:24:10.933Z,9.05
2023-01-19T17:29:06.693Z,10.95
2023-01-19T17:34:01.844Z,16.33
2023-01-19T17:38:59.091Z,9.48
2023-01-19T17:43:52.852Z,7.22
2023-01-19T17:48:46.911Z,7.85
2023-01-19T17:53:42.628Z,11.13
2023-01-19T17:58:38.813Z,7.40
2023-01-19T18:03:34.153Z,9.30
2023-01-19T18:08:27.419Z,10.90
2023-01-19T18:13:22.109Z,8.30
2023-01-19T18:18:16.032Z,10.13
2023-01-19T18:23:09.520Z,10.43
2023-01-19T18:28:02.898Z,8.55
2023-01-19T18:32:57.726Z,8.73
2023-01-19T18:37:52.383Z,10.15
2023-01-19T18:42:58.582Z,8.98
2023-01-19T18:48:01.051Z,12.35
2023-01-19T18:52:54.640Z,9.85
2023-01-19T18:57:48.084Z,8.35
2023-01-19T19:02:41.617Z,9.02
2023-01-19T19:07:40.685Z,13.40
2023-01-19T19:12:35.381Z,10.20
2023-01-19T19:17:28.984Z,9.65
2023-01-19T19:22:25.450Z,11.80
2023-01-19T19:27:20.594Z,10.57
2023-01-19T19:32:21.506Z,10.52
2023-01-19T19:37:21.418Z,14.50
2023-01-19T19:42:15.093Z,18.37
2023-01-19T19:47:12.854Z,7.90
2023-01-19T19:52:07.448Z,9.15
2023-01-19T19:57:03.938Z,6.25
2023-01-19T20:01:57.181Z,9.10
2023-01-19T20:06:51.844Z,12.95
2023-01-19T20:11:46.937Z,11.52
2023-01-19T20:16:40.787Z,14.48
2023-01-19T20:21:37.986Z,21.67
2023-01-19T20:26:36.069Z,22.40
2023-01-19T20:31:32.125Z,15.82
2023-01-19T20:36:26.877Z,17.30
2023-01-19T20:41:21.676Z,17.98
2023-01-19T20:46:16.790Z,12.65
2023-01-19T20:51:13.702Z,10.90
2023-01-19T20:56:12.550Z,13.27
2023-01-19T21:01:11.931Z,13.05
2023-01-19T21:06:07.239Z,10.67
2023-01-19T21:11:00.732Z,12.13
2023-01-19T21:15:54.062Z,7.57
2023-01-19T21:20:48.940Z,7.00
2023-01-19T21:25:51.002Z,8.80
2023-01-19T21:30:44.344Z,8.27
2023-01-19T21:35:37.599Z,6.45
2023-01-19T21:40:30.873Z,6.65
2023-01-19T21:45:25.510Z,9.98
2023-01-19T21:50:19.622Z,8.20
2023-01-19T21:55:14.795Z,7.30
2023-01-19T22:00:10.346Z,6.65
2023-01-19T22:05:06.688Z,8.35
2023-01-19T22:10:00.035Z,9.05
2023-01-19T22:14:53.587Z,6.03
2023-01-19T22:19:46.825Z,21.02
2023-01-19T22:24:46.581Z,18.13
2023-01-19T22:29:39.920Z,12.85
2023-01-19T22:34:33.082Z,14.35
2023-01-19T22:39:26.440Z,18.58
2023-01-19T22:44:22.626Z,21.40
2023-01-19T22:49:18.032Z,20.17
2023-01-19T22:54:11.651Z,19.38
2023-01-19T22:59:06.283Z,44.85
2023-01-19T23:04:01.568Z,30.67
2023-01-19T23:08:56.641Z,18.20
2023-01-19T23:13:50.893Z,33.78
2023-01-19T23:18:45.103Z,37.33
2023-01-19T23:23:39.722Z,39.38
2023-01-19T23:28:34.217Z,23.95
2023-01-19T23:33:28.757Z,26.92
2023-01-19T23:38:22.635Z,20.17
2023-01-19T23:43:18.912Z,25.25
2023-01-19T23:48:12.098Z,24.90
2023-01-19T23:53:05.399Z,22.20
2023-01-19T23:57:58.719Z,18.40
